Time;durP1;ratioP1;P1;durP2;ratioP2;P2;SDS_P1;SDS_P2;PMS_P1;PMS_P2;Temp;Humidity;BMP_temperature;BMP_pressure;BME280_temperature;BME280_humidity;BME280_pressure;Samples;Min_cycle;Max_cycle;Signal;HPM_P1;HPM_P2
2023/03/14 00:00:05;;;;;;;23.85;4.70;;;10.20;99.90;;;;;;5091212;28;20408;-93
2023/03/14 00:02:31;;;;;;;22.05;4.10;;;10.30;99.90;;;;;;5090372;28;20431;-93
2023/03/14 00:04:57;;;;;;;21.40;4.37;;;10.30;99.90;;;;;;5090867;28;20890;-92
2023/03/14 00:07:24;;;;;;;21.80;3.88;;;10.30;99.90;;;;;;5089671;28;20401;-92
2023/03/14 00:09:50;;;;;;;23.50;4.25;;;10.30;99.90;;;;;;5090551;28;20539;-93
2023/03/14 00:12:16;;;;;;;20.13;4.43;;;10.30;99.90;;;;;;5090408;28;20448;-92
2023/03/14 00:14:43;;;;;;;19.10;3.90;;;10.40;99.90;;;;;;5089780;28;20415;-93
2023/03/14 00:17:09;;;;;;;19.30;3.80;;;10.30;99.90;;;;;;5107619;28;20483;-91
2023/03/14 00:19:34;;;;;;;20.10;3.67;;;10.60;99.90;;;;;;5088836;28;20499;-92
2023/03/14 00:22:00;;;;;;;15.50;3.65;;;10.50;99.90;;;;;;5090693;28;20428;-92
2023/03/14 00:24:26;;;;;;;18.67;3.50;;;10.30;99.90;;;;;;5089815;28;20396;-93
2023/03/14 00:26:51;;;;;;;22.17;3.90;;;10.40;99.90;;;;;;5089820;28;20675;-94
2023/03/14 00:29:17;;;;;;;17.35;3.22;;;10.40;99.90;;;;;;5089892;28;20414;-92
2023/03/14 00:31:43;;;;;;;19.15;3.78;;;10.40;99.90;;;;;;5089566;28;20397;-92
2023/03/14 00:34:08;;;;;;;19.60;3.13;;;10.40;99.90;;;;;;5089877;28;20417;-93
2023/03/14 00:36:34;;;;;;;21.92;3.33;;;10.40;99.90;;;;;;5089541;28;20404;-92
2023/03/14 00:38:59;;;;;;;20.37;3.70;;;10.40;99.90;;;;;;5090036;28;20408;-92
2023/03/14 00:41:25;;;;;;;17.43;3.07;;;10.40;99.90;;;;;;5089004;28;20469;-93
2023/03/14 00:43:51;;;;;;;19.30;3.63;;;10.30;99.90;;;;;;5090401;28;20400;-91
2023/03/14 00:46:17;;;;;;;20.50;3.72;;;10.30;99.90;;;;;;5089430;28;20725;-93
2023/03/14 00:48:45;;;;;;;20.20;3.92;;;10.40;99.90;;;;;;5090221;28;20399;-93
2023/03/14 00:51:13;;;;;;;17.55;3.35;;;10.20;99.90;;;;;;5089857;28;20526;-93
2023/03/14 00:53:39;;;;;;;18.60;3.83;;;10.30;99.90;;;;;;5105949;28;20553;-93
2023/03/14 00:56:08;;;;;;;19.30;3.35;;;10.20;99.90;;;;;;5090363;28;20828;-94
2023/03/14 00:58:34;;;;;;;17.83;3.15;;;10.10;99.90;;;;;;5088704;28;20396;-93
2023/03/14 01:01:06;;;;;;;20.02;3.90;;;10.60;99.90;;;;;;5089622;28;20411;-92
2023/03/14 01:03:32;;;;;;;16.17;2.78;;;10.10;99.90;;;;;;5089144;28;20844;-92
2023/03/14 01:06:20;;;;;;;16.45;3.20;;;10.10;99.90;;;;;;5106470;28;20409;-90
2023/03/14 01:08:46;;;;;;;17.30;3.42;;;10.10;99.90;;;;;;5089118;28;20419;-92
2023/03/14 01:11:17;;;;;;;16.10;3.38;;;10.40;99.90;;;;;;5088339;28;20494;-93
2023/03/14 01:13:43;;;;;;;15.77;3.00;;;10.20;99.90;;;;;;5105908;28;20501;-92
2023/03/14 01:16:10;;;;;;;17.00;2.90;;;10.20;99.90;;;;;;5088257;28;20482;-92
2023/03/14 01:18:37;;;;;;;12.77;2.10;;;10.20;99.90;;;;;;5089543;28;20407;-91
2023/03/14 01:21:09;;;;;;;15.50;3.00;;;10.30;99.90;;;;;;5088485;28;20474;-92
2023/03/14 01:23:34;;;;;;;15.63;2.90;;;10.30;99.90;;;;;;5089067;28;21103;-92
2023/03/14 01:26:00;;;;;;;13.32;2.63;;;10.30;99.90;;;;;;5088974;28;20408;-92
2023/03/14 01:28:26;;;;;;;12.30;2.20;;;10.40;99.90;;;;;;5088454;28;20416;-92
2023/03/14 01:30:51;;;;;;;13.83;2.50;;;10.40;99.90;;;;;;5088863;28;20471;-92
2023/03/14 01:33:17;;;;;;;16.13;2.30;;;10.40;99.90;;;;;;5088207;28;20496;-93
2023/03/14 01:35:43;;;;;;;14.10;2.43;;;10.60;99.90;;;;;;5106740;28;20503;-92
2023/03/14 01:38:08;;;;;;;16.77;2.13;;;10.60;99.90;;;;;;5088546;28;20395;-89
2023/03/14 01:40:41;;;;;;;14.35;1.60;;;10.50;99.90;;;;;;5070766;28;20837;-93
2023/03/14 01:43:14;;;;;;;14.30;2.85;;;10.60;99.90;;;;;;5068239;28;20451;-93
2023/03/14 01:46:26;;;;;;;14.87;2.50;;;10.40;99.90;;;;;;5068345;28;20401;-89
2023/03/14 01:49:12;;;;;;;17.03;2.33;;;10.40;99.90;;;;;;5086087;28;20889;-90
2023/03/14 01:52:23;;;;;;;17.75;2.58;;;10.60;99.90;;;;;;5061440;28;20773;-93
2023/03/14 01:54:59;;;;;;;15.75;2.22;;;10.30;99.90;;;;;;5059086;28;20418;-94
2023/03/14 01:57:32;;;;;;;19.67;2.30;;;10.30;99.90;;;;;;5069706;28;20981;-93
2023/03/14 02:00:14;;;;;;;15.10;1.87;;;10.40;99.90;;;;;;5083304;28;20414;-91
2023/03/14 02:02:43;;;;;;;16.35;2.42;;;10.10;99.90;;;;;;5105571;28;20408;-94
2023/03/14 02:05:10;;;;;;;15.80;2.20;;;10.00;99.90;;;;;;5088817;28;20913;-91
2023/03/14 02:07:45;;;;;;;15.77;2.60;;;9.90;99.90;;;;;;5105191;28;20465;-92
2023/03/14 02:10:11;;;;;;;16.80;2.50;;;10.00;99.90;;;;;;5088968;28;20424;-93
2023/03/14 02:12:38;;;;;;;18.58;1.92;;;9.90;99.90;;;;;;5087884;28;20405;-92
2023/03/14 02:15:04;;;;;;;13.38;1.98;;;9.50;99.90;;;;;;5106010;28;20487;-91
2023/03/14 02:17:30;;;;;;;17.90;2.70;;;9.60;99.90;;;;;;5104604;28;20509;-92
2023/03/14 02:20:15;;;;;;;15.77;2.33;;;9.70;99.90;;;;;;5088881;28;20912;-93
2023/03/14 02:22:44;;;;;;;14.00;1.77;;;9.60;99.90;;;;;;5105650;28;20420;-91
2023/03/14 02:25:50;;;;;;;15.32;2.05;;;9.50;99.90;;;;;;5087443;28;20396;-93
2023/03/14 02:28:16;;;;;;;13.75;2.10;;;9.50;99.90;;;;;;5089169;28;20455;-91
2023/03/14 02:30:43;;;;;;;14.70;1.88;;;9.60;99.90;;;;;;5088549;28;20423;-92
2023/03/14 02:33:14;;;;;;;15.25;2.35;;;9.60;99.90;;;;;;5088520;28;20399;-92
2023/03/14 02:35:50;;;;;;;13.13;1.73;;;9.60;99.90;;;;;;5105965;28;20400;-92
2023/03/14 02:38:22;;;;;;;16.10;1.83;;;9.50;99.90;;;;;;5087768;28;20491;-92
2023/03/14 02:40:48;;;;;;;17.23;2.22;;;9.50;99.90;;;;;;5088940;28;20417;-92
2023/03/14 02:43:14;;;;;;;12.95;1.75;;;9.50;99.90;;;;;;5090183;28;20432;-91
2023/03/14 02:45:42;;;;;;;14.73;1.40;;;9.50;99.90;;;;;;5092466;28;20926;-91
2023/03/14 02:48:16;;;;;;;14.40;1.75;;;9.40;99.90;;;;;;5092607;28;20860;-92
2023/03/14 02:50:45;;;;;;;14.32;2.05;;;9.40;99.90;;;;;;5091512;28;20428;-92
2023/03/14 02:53:14;;;;;;;16.75;2.05;;;9.50;99.90;;;;;;5092415;28;20385;-93
2023/03/14 02:55:39;;;;;;;15.05;2.17;;;9.60;99.90;;;;;;5091533;28;20407;-93
2023/03/14 02:58:05;;;;;;;15.00;1.85;;;9.50;99.90;;;;;;5092530;28;20497;-93
2023/03/14 03:00:30;;;;;;;16.60;2.07;;;9.40;99.90;;;;;;5091346;28;20405;-92
2023/03/14 03:02:56;;;;;;;15.05;2.38;;;9.50;99.90;;;;;;5092017;28;20400;-93
2023/03/14 03:05:22;;;;;;;16.08;2.03;;;9.40;99.90;;;;;;5091672;28;20456;-93
2023/03/14 03:07:47;;;;;;;18.50;2.80;;;9.30;99.90;;;;;;5091019;28;20412;-91
2023/03/14 03:10:13;;;;;;;18.27;2.83;;;9.30;99.90;;;;;;5091979;28;20412;-93
2023/03/14 03:12:39;;;;;;;20.95;2.80;;;9.30;99.90;;;;;;5090437;28;20408;-92
2023/03/14 03:15:05;;;;;;;18.98;2.85;;;9.20;99.90;;;;;;5091928;28;20963;-94
2023/03/14 03:17:31;;;;;;;19.88;2.90;;;9.10;99.90;;;;;;5090223;28;20457;-94
2023/03/14 03:19:57;;;;;;;19.83;3.20;;;9.10;99.90;;;;;;5109188;28;20408;-93
2023/03/14 03:22:22;;;;;;;19.77;2.97;;;9.10;99.90;;;;;;5090731;28;20903;-94
2023/03/14 03:24:49;;;;;;;19.67;3.43;;;9.10;99.90;;;;;;5091531;28;20419;-92
2023/03/14 03:27:14;;;;;;;20.33;3.05;;;9.10;99.90;;;;;;5091472;28;20400;-93
2023/03/14 03:29:40;;;;;;;20.87;3.23;;;9.10;99.90;;;;;;5090365;28;20461;-93
2023/03/14 03:32:06;;;;;;;25.52;3.65;;;9.10;99.90;;;;;;5091358;28;20532;-94
2023/03/14 03:34:31;;;;;;;17.70;2.90;;;9.10;99.90;;;;;;5090462;28;20393;-93
2023/03/14 03:36:57;;;;;;;20.07;3.07;;;9.00;99.90;;;;;;5091528;28;20412;-92
2023/03/14 03:39:23;;;;;;;23.80;3.58;;;9.00;99.90;;;;;;5091223;28;20743;-92
2023/03/14 03:41:49;;;;;;;23.57;3.17;;;9.10;99.90;;;;;;5091134;28;20411;-93
2023/03/14 03:44:14;;;;;;;27.40;4.00;;;9.50;99.90;;;;;;5090884;28;20428;-92
2023/03/14 03:46:40;;;;;;;20.25;3.40;;;9.10;99.90;;;;;;5107840;28;20405;-90
2023/03/14 03:49:06;;;;;;;26.80;4.00;;;9.10;99.90;;;;;;5091244;28;20404;-93
2023/03/14 03:51:31;;;;;;;24.50;3.47;;;9.10;99.90;;;;;;5090162;28;20486;-96
2023/03/14 03:53:57;;;;;;;25.08;3.67;;;9.00;99.90;;;;;;5090436;28;20835;-92
2023/03/14 03:56:23;;;;;;;26.33;3.65;;;9.10;99.90;;;;;;5090478;28;20797;-91
2023/03/14 03:58:49;;;;;;;27.15;4.20;;;9.40;99.90;;;;;;5091114;28;20401;-92
2023/03/14 04:01:14;;;;;;;23.93;3.47;;;9.10;99.90;;;;;;5107230;28;20407;-93
2023/03/14 04:03:40;;;;;;;23.13;3.60;;;9.10;99.90;;;;;;5091017;28;20461;-93
2023/03/14 04:06:09;;;;;;;24.15;3.58;;;9.20;99.90;;;;;;5090786;28;20767;-91
2023/03/14 04:08:34;;;;;;;24.27;3.70;;;9.20;99.90;;;;;;5089663;28;20491;-94
2023/03/14 04:11:01;;;;;;;27.23;4.37;;;9.20;99.90;;;;;;5090775;28;20531;-92
2023/03/14 04:13:27;;;;;;;23.15;3.78;;;9.10;99.90;;;;;;5089458;28;20407;-92
2023/03/14 04:15:54;;;;;;;23.60;4.03;;;9.20;99.90;;;;;;5090688;28;20411;-93
2023/03/14 04:18:20;;;;;;;29.33;4.25;;;9.40;99.90;;;;;;5089569;28;20418;-93
2023/03/14 04:20:51;;;;;;;23.50;3.05;;;9.20;99.90;;;;;;5090647;28;20431;-93
2023/03/14 04:23:17;;;;;;;23.90;3.80;;;9.20;99.90;;;;;;5090327;28;20409;-92
2023/03/14 04:25:42;;;;;;;22.77;3.75;;;9.40;99.90;;;;;;5089961;28;20411;-92
2023/03/14 04:28:08;;;;;;;23.77;4.07;;;9.30;99.90;;;;;;5090306;28;20862;-92
2023/03/14 04:30:34;;;;;;;19.87;3.17;;;9.30;99.90;;;;;;5089107;28;20649;-91
2023/03/14 04:33:00;;;;;;;23.95;3.83;;;9.50;99.90;;;;;;5090417;28;20404;-93
2023/03/14 04:35:25;;;;;;;19.33;2.75;;;9.50;99.90;;;;;;5089473;28;20490;-90
2023/03/14 04:37:51;;;;;;;18.67;3.20;;;9.60;99.90;;;;;;5090717;28;20444;-92
2023/03/14 04:40:17;;;;;;;24.58;3.85;;;9.30;99.90;;;;;;5089520;28;20400;-93
2023/03/14 04:42:43;;;;;;;24.50;3.67;;;9.30;99.90;;;;;;5089866;28;20403;-92
2023/03/14 04:45:09;;;;;;;26.83;5.00;;;8.90;99.90;;;;;;5089872;28;20700;-93
2023/03/14 04:47:35;;;;;;;27.95;5.30;;;9.20;99.90;;;;;;5089262;28;20472;-92
2023/03/14 04:50:01;;;;;;;27.27;4.50;;;9.10;99.90;;;;;;5106911;28;20454;-93
2023/03/14 04:52:27;;;;;;;33.42;5.40;;;9.00;99.90;;;;;;5088403;28;20491;-92
2023/03/14 04:54:52;;;;;;;34.28;5.60;;;9.10;99.90;;;;;;5090187;28;20410;-94
2023/03/14 04:57:18;;;;;;;32.40;5.60;;;9.30;99.90;;;;;;5088812;28;20400;-92
2023/03/14 04:59:44;;;;;;;30.23;6.13;;;9.10;99.90;;;;;;5089252;28;20448;-93
2023/03/14 05:02:10;;;;;;;25.92;5.40;;;9.00;99.90;;;;;;5106591;28;20451;-92
2023/03/14 05:04:35;;;;;;;39.13;7.75;;;8.90;99.90;;;;;;5089574;28;20412;-92
2023/03/14 05:07:01;;;;;;;28.53;6.40;;;8.90;99.90;;;;;;5105405;28;20424;-94
2023/03/14 05:09:27;;;;;;;34.43;7.70;;;8.70;99.90;;;;;;5088290;28;20404;-92
2023/03/14 05:11:53;;;;;;;30.65;7.85;;;8.70;99.90;;;;;;5089032;28;20396;-92
2023/03/14 05:14:18;;;;;;;33.00;8.52;;;8.80;99.90;;;;;;5104574;28;20550;-93
2023/03/14 05:16:44;;;;;;;22.38;7.78;;;8.50;99.90;;;;;;5090147;28;20404;-91
2023/03/14 05:19:11;;;;;;;23.17;7.10;;;8.90;99.90;;;;;;5088278;28;20401;-92
2023/03/14 05:21:37;;;;;;;24.75;7.78;;;8.70;99.90;;;;;;5106745;28;20407;-92
2023/03/14 05:24:03;;;;;;;28.87;8.90;;;8.60;99.90;;;;;;5089289;28;20472;-90
2023/03/14 05:26:29;;;;;;;33.05;10.65;;;8.60;99.90;;;;;;5088007;28;20483;-91
2023/03/14 05:28:55;;;;;;;33.72;10.40;;;8.70;99.90;;;;;;5089115;28;20400;-91
2023/03/14 05:31:21;;;;;;;22.23;9.07;;;8.80;99.90;;;;;;5088158;28;20485;-92
2023/03/14 05:33:47;;;;;;;20.83;9.52;;;8.60;99.90;;;;;;5089650;28;20400;-90
2023/03/14 05:36:13;;;;;;;26.17;10.67;;;8.50;99.90;;;;;;5087982;28;20404;-90
2023/03/14 05:38:38;;;;;;;28.50;11.33;;;8.50;99.90;;;;;;5089681;28;20427;-91
2023/03/14 05:41:04;;;;;;;15.10;7.40;;;8.60;99.90;;;;;;5088506;28;20752;-89
2023/03/14 05:43:30;;;;;;;8.65;4.80;;;8.50;99.90;;;;;;5088614;28;20921;-90
2023/03/14 05:45:55;;;;;;;16.55;6.85;;;8.50;99.90;;;;;;5089004;28;20481;-90
2023/03/14 05:48:21;;;;;;;19.02;8.77;;;8.50;99.90;;;;;;5088473;28;20403;-90
2023/03/14 05:50:48;;;;;;;27.00;10.77;;;8.50;99.90;;;;;;5105639;28;20463;-90
2023/03/14 05:53:14;;;;;;;26.02;11.32;;;8.50;99.90;;;;;;5087658;28;20978;-92
2023/03/14 05:55:42;;;;;;;22.98;10.52;;;8.50;99.90;;;;;;5086789;28;20389;-89
2023/03/14 05:58:08;;;;;;;23.05;10.32;;;8.50;99.90;;;;;;5067577;28;20795;-88
2023/03/14 06:00:34;;;;;;;25.13;11.05;;;8.50;99.90;;;;;;5067854;28;20406;-88
2023/03/14 06:02:59;;;;;;;26.53;11.10;;;8.50;99.90;;;;;;5067829;28;20411;-88
2023/03/14 06:05:25;;;;;;;27.70;11.05;;;8.50;99.90;;;;;;5067780;28;20406;-89
2023/03/14 06:07:51;;;;;;;8.20;1.10;;;8.50;99.90;;;;;;5067593;28;20961;-92
2023/03/14 06:10:16;;;;;;;11.33;0.77;;;8.30;99.90;;;;;;5067886;28;20426;-92
2023/03/14 06:12:42;;;;;;;12.13;0.82;;;7.70;99.90;;;;;;5069470;28;20398;-90
2023/03/14 06:15:08;;;;;;;13.50;0.82;;;7.30;99.90;;;;;;5067867;28;20772;-88
2023/03/14 06:17:34;;;;;;;18.05;1.58;;;7.10;99.90;;;;;;5070403;28;20409;-90
2023/03/14 06:19:59;;;;;;;19.88;1.50;;;6.80;99.90;;;;;;5071821;28;20414;-91
2023/03/14 06:22:25;;;;;;;21.33;1.50;;;6.60;99.90;;;;;;5071650;28;20421;-90
2023/03/14 06:24:51;;;;;;;22.02;1.40;;;6.40;99.90;;;;;;5072171;28;20429;-88
2023/03/14 06:27:16;;;;;;;22.45;1.67;;;6.20;99.90;;;;;;5088141;28;20401;-89
2023/03/14 06:29:42;;;;;;;31.50;2.47;;;6.10;99.90;;;;;;5071629;28;20453;-90
2023/03/14 06:32:08;;;;;;;25.43;1.67;;;6.00;99.90;;;;;;5070688;28;20402;-90
2023/03/14 06:34:34;;;;;;;19.08;1.00;;;5.90;99.90;;;;;;5072230;28;20414;-92
2023/03/14 06:37:00;;;;;;;14.47;0.80;;;5.80;99.90;;;;;;5087845;28;20474;-92
2023/03/14 06:39:25;;;;;;;17.67;0.83;;;5.60;99.90;;;;;;5071953;28;20920;-91
2023/03/14 06:41:51;;;;;;;15.52;0.80;;;5.30;99.90;;;;;;5071219;28;20864;-89
2023/03/14 06:44:17;;;;;;;17.23;1.30;;;5.20;99.90;;;;;;5071334;28;20402;-90
2023/03/14 06:46:42;;;;;;;12.60;0.50;;;5.10;99.90;;;;;;5072119;28;20901;-90
2023/03/14 06:49:08;;;;;;;12.07;0.90;;;4.90;99.90;;;;;;5070966;28;20399;-89
2023/03/14 06:51:34;;;;;;;10.98;0.43;;;4.90;99.90;;;;;;5071209;28;20426;-89
2023/03/14 06:53:59;;;;;;;9.65;0.40;;;4.80;99.90;;;;;;5070959;28;20427;-89
2023/03/14 06:56:25;;;;;;;7.03;0.43;;;4.70;99.90;;;;;;5071967;28;20459;-89
2023/03/14 06:58:51;;;;;;;6.70;0.30;;;4.60;99.90;;;;;;5071026;28;20757;-91
2023/03/14 07:01:35;;;;;;;7.27;0.40;;;4.60;99.90;;;;;;5071657;28;20402;-89
2023/03/14 07:04:01;;;;;;;7.28;0.30;;;4.40;99.90;;;;;;5071538;28;20449;-90
2023/03/14 07:06:29;;;;;;;8.90;0.50;;;4.50;99.90;;;;;;5069879;28;20467;-89
2023/03/14 07:08:55;;;;;;;6.88;0.45;;;4.50;99.90;;;;;;5088382;28;20407;-90
2023/03/14 07:11:21;;;;;;;8.95;0.40;;;4.40;99.90;;;;;;5070690;28;20458;-91
2023/03/14 07:13:47;;;;;;;5.97;0.28;;;4.40;99.90;;;;;;5071566;28;20398;-91
2023/03/14 07:16:13;;;;;;;5.57;0.20;;;4.40;99.90;;;;;;5070976;28;20408;-90
2023/03/14 07:18:38;;;;;;;5.97;0.20;;;4.50;99.90;;;;;;5071516;28;20966;-90
2023/03/14 07:21:06;;;;;;;10.77;0.30;;;4.40;99.90;;;;;;5088959;28;20425;-92
2023/03/14 07:23:32;;;;;;;6.22;0.30;;;4.40;99.90;;;;;;5070725;28;20405;-90
2023/03/14 07:25:57;;;;;;;7.83;0.30;;;4.50;99.90;;;;;;5088447;28;20409;-92
2023/03/14 07:28:23;;;;;;;7.47;0.40;;;4.50;99.90;;;;;;5069457;28;20917;-91
2023/03/14 07:30:49;;;;;;;6.07;0.50;;;4.50;99.90;;;;;;5090800;28;20555;-94
2023/03/14 07:33:15;;;;;;;5.50;0.30;;;4.50;99.90;;;;;;5078898;28;20455;-90
2023/03/14 07:35:41;;;;;;;8.52;0.40;;;4.50;99.90;;;;;;5078896;28;20413;-91
2023/03/14 07:38:06;;;;;;;9.90;0.30;;;4.50;99.90;;;;;;5090316;28;20753;-92
2023/03/14 07:40:32;;;;;;;8.83;0.60;;;4.60;99.90;;;;;;5070482;28;20417;-91
2023/03/14 07:42:57;;;;;;;8.33;0.50;;;4.60;99.90;;;;;;5070755;28;20409;-90
2023/03/14 07:45:23;;;;;;;8.32;0.60;;;4.60;99.90;;;;;;5070442;28;20888;-93
2023/03/14 07:47:49;;;;;;;8.10;0.55;;;4.70;99.90;;;;;;5070845;28;20406;-92
2023/03/14 07:50:15;;;;;;;8.37;0.50;;;4.70;99.90;;;;;;5070289;28;20432;-93
2023/03/14 07:52:40;;;;;;;12.90;0.70;;;4.70;99.90;;;;;;5070916;28;20923;-92
2023/03/14 07:55:07;;;;;;;8.67;0.43;;;4.80;99.90;;;;;;5070150;28;20406;-92
2023/03/14 07:57:32;;;;;;;10.65;0.63;;;4.90;99.90;;;;;;5087619;28;20417;-90
2023/03/14 07:59:58;;;;;;;7.43;0.40;;;4.90;99.90;;;;;;5087663;28;20901;-91
2023/03/14 08:02:24;;;;;;;8.10;0.40;;;5.00;99.90;;;;;;5070175;28;20544;-92
2023/03/14 08:04:50;;;;;;;10.48;0.70;;;5.00;99.90;;;;;;5070846;28;20451;-92
2023/03/14 08:07:16;;;;;;;8.07;0.45;;;5.00;99.90;;;;;;5085889;28;20398;-91
2023/03/14 08:09:42;;;;;;;8.80;0.50;;;5.10;99.90;;;;;;5070464;28;20425;-92
2023/03/14 08:12:08;;;;;;;8.50;0.80;;;5.10;99.90;;;;;;5069400;28;21022;-93
2023/03/14 08:14:34;;;;;;;9.17;0.70;;;5.00;99.90;;;;;;5087485;28;20413;-89
2023/03/14 08:16:59;;;;;;;11.37;1.10;;;5.10;99.90;;;;;;5069469;28;20449;-91
2023/03/14 08:19:25;;;;;;;11.27;0.97;;;5.10;99.90;;;;;;5070118;28;20443;-94
2023/03/14 08:21:51;;;;;;;15.45;1.30;;;5.30;99.90;;;;;;5069758;28;20822;-91
2023/03/14 08:24:17;;;;;;;10.93;1.17;;;5.30;99.90;;;;;;5069421;28;20412;-91
2023/03/14 08:26:42;;;;;;;15.45;1.20;;;5.50;99.90;;;;;;5069631;28;20414;-91
2023/03/14 08:29:08;;;;;;;15.52;1.20;;;5.50;99.90;;;;;;5068805;28;20401;-91
2023/03/14 08:31:37;;;;;;;15.93;1.80;;;5.60;99.90;;;;;;5070488;28;20479;-92
2023/03/14 08:34:03;;;;;;;13.88;1.33;;;5.70;99.90;;;;;;5069229;28;20440;-92
2023/03/14 08:36:28;;;;;;;15.32;1.50;;;5.70;99.90;;;;;;5070160;28;20406;-92
2023/03/14 08:38:54;;;;;;;13.95;1.60;;;5.60;99.90;;;;;;5069502;28;20437;-92
2023/03/14 08:41:20;;;;;;;18.50;2.33;;;5.70;99.90;;;;;;5068792;28;20935;-92
2023/03/14 08:43:45;;;;;;;15.40;1.92;;;5.70;99.90;;;;;;5069691;28;20405;-92
2023/03/14 08:46:11;;;;;;;16.63;1.87;;;5.80;99.90;;;;;;5068914;28;21241;-90
2023/03/14 08:48:37;;;;;;;15.23;1.70;;;5.80;99.90;;;;;;5069577;28;20491;-91
2023/03/14 08:51:08;;;;;;;17.75;2.85;;;5.80;99.90;;;;;;5068869;28;20583;-91
2023/03/14 08:53:33;;;;;;;17.33;1.73;;;6.00;99.90;;;;;;5086689;28;20487;-91
2023/03/14 08:55:59;;;;;;;13.48;1.77;;;6.40;99.90;;;;;;5075995;28;20487;-92
2023/03/14 08:58:25;;;;;;;20.53;2.30;;;6.50;99.90;;;;;;5089443;28;20902;-93
2023/03/14 09:00:51;;;;;;;18.45;2.78;;;6.70;99.90;;;;;;5089617;28;20400;-89
2023/03/14 09:03:17;;;;;;;20.43;2.20;;;6.60;99.90;;;;;;5089035;28;20752;-93
2023/03/14 09:05:42;;;;;;;16.23;2.00;;;6.50;99.90;;;;;;5090063;28;20399;-90
2023/03/14 09:08:08;;;;;;;14.00;1.60;;;6.20;99.90;;;;;;5088384;28;20924;-91
2023/03/14 09:10:34;;;;;;;15.30;2.30;;;6.00;99.90;;;;;;5089489;28;20427;-89
2023/03/14 09:13:00;;;;;;;18.05;2.20;;;5.70;99.90;;;;;;5088760;28;20400;-91
2023/03/14 09:15:25;;;;;;;18.75;2.50;;;5.70;99.90;;;;;;5089707;28;20415;-90
2023/03/14 09:17:51;;;;;;;19.25;2.22;;;5.70;99.90;;;;;;5089145;28;20393;-90
2023/03/14 09:20:17;;;;;;;23.80;2.90;;;5.90;99.90;;;;;;5089322;28;20478;-91
2023/03/14 09:22:43;;;;;;;19.07;2.57;;;5.80;99.90;;;;;;5106373;28;20405;-90
2023/03/14 09:25:10;;;;;;;12.75;1.58;;;5.70;99.90;;;;;;5088563;28;20438;-92
2023/03/14 09:27:35;;;;;;;16.27;2.50;;;5.70;99.90;;;;;;5089457;28;20491;-91
2023/03/14 09:30:01;;;;;;;14.70;1.70;;;5.70;99.90;;;;;;5088705;28;20511;-90
2023/03/14 09:32:27;;;;;;;17.38;2.17;;;5.80;99.90;;;;;;5089332;28;20408;-89
2023/03/14 09:34:53;;;;;;;20.23;2.50;;;6.00;99.90;;;;;;5089465;28;20404;-93
2023/03/14 09:37:19;;;;;;;16.13;2.45;;;5.90;99.90;;;;;;5089379;28;20396;-91
2023/03/14 09:39:45;;;;;;;24.38;3.17;;;5.80;99.90;;;;;;5089121;28;20408;-91
2023/03/14 09:42:17;;;;;;;21.10;2.70;;;5.90;99.90;;;;;;5088422;28;20396;-90
2023/03/14 09:44:52;;;;;;;17.45;2.38;;;6.10;99.90;;;;;;5087262;28;20392;-90
2023/03/14 09:47:19;;;;;;;17.50;2.75;;;6.10;99.90;;;;;;5105718;28;20592;-90
2023/03/14 09:49:45;;;;;;;15.38;2.40;;;6.20;99.90;;;;;;5077462;28;20426;-91
2023/03/14 09:52:32;;;;;;;19.63;2.40;;;6.30;99.90;;;;;;5070011;28;20983;-90
2023/03/14 09:55:02;;;;;;;20.95;3.15;;;6.40;99.90;;;;;;5071967;28;20390;-91
2023/03/14 09:57:29;;;;;;;18.65;1.85;;;6.50;99.90;;;;;;5075614;28;20402;-90
2023/03/14 10:00:00;;;;;;;16.45;2.28;;;6.50;99.70;;;;;;5092528;28;20408;-93
2023/03/14 10:02:34;;;;;;;14.00;1.73;;;6.70;98.40;;;;;;5093591;28;20432;-91
2023/03/14 10:05:00;;;;;;;16.20;2.03;;;6.60;97.70;;;;;;5092769;28;20449;-91
2023/03/14 10:07:31;;;;;;;14.30;2.05;;;6.60;99.50;;;;;;5093351;28;20412;-91
2023/03/14 10:09:58;;;;;;;15.17;1.73;;;6.60;96.30;;;;;;5109713;28;20412;-91
2023/03/14 10:12:35;;;;;;;14.27;1.33;;;6.70;95.20;;;;;;5092283;28;20408;-91
2023/03/14 10:15:10;;;;;;;14.98;2.13;;;6.70;93.40;;;;;;5092708;28;20404;-91
2023/03/14 10:17:50;;;;;;;14.13;1.73;;;6.80;97.80;;;;;;5109673;28;20415;-90
2023/03/14 10:20:32;;;;;;;11.82;1.55;;;6.80;93.50;;;;;;5087052;28;20933;-92
2023/03/14 10:23:22;;;;;;;11.37;1.17;;;6.80;90.30;;;;;;5092881;28;20531;-93
2023/03/14 10:26:04;;;;;;;10.90;1.20;;;6.80;82.80;;;;;;5105433;28;20401;-91
2023/03/14 10:28:38;;;;;;;8.73;0.88;;;6.90;88.20;;;;;;5092842;28;20414;-92
2023/03/14 10:31:04;;;;;;;13.63;1.73;;;7.00;81.60;;;;;;5092511;28;20503;-91
2023/03/14 10:33:35;;;;;;;9.93;1.17;;;7.10;85.10;;;;;;5092629;28;20487;-93
2023/03/14 10:36:05;;;;;;;8.68;1.10;;;7.00;78.80;;;;;;5092478;28;20847;-92
2023/03/14 10:38:35;;;;;;;9.73;1.27;;;6.90;74.30;;;;;;5091533;28;20441;-91
2023/03/14 10:41:01;;;;;;;10.85;1.10;;;7.20;78.10;;;;;;5092700;28;20430;-93
2023/03/14 10:43:35;;;;;;;9.43;1.02;;;7.80;82.00;;;;;;5091960;28;20407;-94
2023/03/14 10:46:08;;;;;;;6.70;0.60;;;7.90;75.70;;;;;;5092386;28;20411;-92
2023/03/14 10:48:37;;;;;;;8.63;0.80;;;7.70;67.50;;;;;;5092614;28;20457;-91
2023/03/14 10:51:05;;;;;;;7.82;0.80;;;7.70;71.20;;;;;;5091388;28;20424;-94
2023/03/14 10:53:59;;;;;;;9.15;0.90;;;8.10;70.80;;;;;;5092740;28;20400;-91
2023/03/14 10:56:26;;;;;;;8.25;1.00;;;8.30;74.20;;;;;;5088149;28;20410;-90
2023/03/14 10:58:59;;;;;;;6.07;0.65;;;8.20;69.80;;;;;;5090463;28;20412;-91
2023/03/14 11:01:51;;;;;;;8.57;0.80;;;7.70;64.40;;;;;;5091578;28;20411;-89
2023/03/14 11:04:47;;;;;;;7.80;1.00;;;7.60;71.70;;;;;;5091097;28;20503;-93
2023/03/14 11:07:32;;;;;;;7.57;0.95;;;7.80;69.90;;;;;;5092312;28;20412;-92
2023/03/14 11:10:08;;;;;;;6.22;0.50;;;7.90;64.00;;;;;;5091341;28;20432;-92
2023/03/14 11:12:45;;;;;;;6.63;0.50;;;7.90;63.60;;;;;;5091135;28;20473;-93
2023/03/14 11:15:33;;;;;;;5.67;0.63;;;8.10;63.10;;;;;;5087904;28;20805;-93
2023/03/14 11:18:37;;;;;;;6.80;0.60;;;8.10;60.80;;;;;;5058118;28;20421;-93
2023/03/14 11:21:23;;;;;;;6.00;0.40;;;8.30;62.20;;;;;;5071526;28;20406;-93
2023/03/14 11:24:03;;;;;;;5.70;0.50;;;8.40;60.30;;;;;;5071738;28;20535;-92
2023/03/14 11:26:43;;;;;;;4.57;0.57;;;8.40;59.70;;;;;;5070142;28;20409;-92
2023/03/14 11:29:30;;;;;;;6.00;0.90;;;8.60;55.30;;;;;;5071522;28;20414;-93
2023/03/14 11:32:00;;;;;;;7.65;0.65;;;8.40;59.40;;;;;;5071161;28;20418;-91
2023/03/14 11:34:38;;;;;;;6.32;0.50;;;8.50;58.20;;;;;;5087748;28;20406;-92
2023/03/14 11:37:33;;;;;;;4.97;0.40;;;8.40;56.30;;;;;;5099789;28;21140;-90
2023/03/14 11:40:11;;;;;;;5.35;0.40;;;8.70;57.30;;;;;;5070321;28;20418;-92
2023/03/14 11:42:39;;;;;;;6.75;0.50;;;8.90;57.20;;;;;;5070591;28;20410;-89
2023/03/14 11:45:13;;;;;;;5.32;0.50;;;8.90;56.30;;;;;;5070963;28;20481;-92
2023/03/14 11:47:42;;;;;;;6.65;0.50;;;8.90;58.00;;;;;;5087047;28;20421;-90
2023/03/14 11:50:23;;;;;;;8.15;0.63;;;9.30;61.00;;;;;;5071260;28;20429;-91
2023/03/14 11:53:33;;;;;;;4.90;0.60;;;9.10;54.60;;;;;;5096872;28;20463;-92
2023/03/14 11:55:59;;;;;;;8.82;0.65;;;8.60;56.50;;;;;;5066726;28;20503;-93
2023/03/14 11:58:30;;;;;;;8.48;0.63;;;8.60;58.90;;;;;;5097136;28;20406;-89
2023/03/14 12:00:57;;;;;;;9.80;0.80;;;8.70;63.00;;;;;;5083389;28;20830;-92
2023/03/14 12:03:32;;;;;;;6.22;0.50;;;9.00;61.50;;;;;;5070934;28;20918;-92
2023/03/14 12:06:27;;;;;;;7.73;0.60;;;8.90;62.40;;;;;;5069564;28;20414;-92
2023/03/14 12:08:57;;;;;;;8.90;0.90;;;9.30;62.70;;;;;;5078239;28;20505;-91
2023/03/14 12:11:29;;;;;;;7.95;0.85;;;9.40;60.50;;;;;;5086649;28;20421;-92
2023/03/14 12:13:54;;;;;;;7.75;0.80;;;9.20;62.20;;;;;;5076719;28;20791;-90
2023/03/14 12:16:23;;;;;;;7.17;0.60;;;9.40;62.70;;;;;;5089636;28;20397;-92
2023/03/14 12:18:50;;;;;;;5.43;0.85;;;9.80;64.80;;;;;;5077662;28;20914;-91
2023/03/14 12:21:16;;;;;;;10.40;0.63;;;9.80;59.20;;;;;;5069774;28;20433;-90
2023/03/14 12:23:55;;;;;;;7.30;0.90;;;9.70;58.50;;;;;;5070981;28;20383;-92
2023/03/14 12:26:26;;;;;;;8.38;0.70;;;9.30;59.50;;;;;;5069578;28;20406;-91
2023/03/14 12:29:13;;;;;;;7.80;1.02;;;9.50;58.50;;;;;;5101407;28;20446;-91
2023/03/14 12:31:43;;;;;;;10.20;1.00;;;9.30;58.00;;;;;;5076797;28;20414;-91
2023/03/14 12:34:09;;;;;;;9.18;0.70;;;9.00;58.10;;;;;;5078055;28;20962;-91
2023/03/14 12:36:50;;;;;;;6.80;0.63;;;8.70;59.50;;;;;;5089680;28;20496;-92
2023/03/14 12:39:53;;;;;;;3.33;0.30;;;8.50;57.60;;;;;;5072601;28;20421;-90
2023/03/14 12:42:58;;;;;;;5.43;0.50;;;8.40;52.90;;;;;;5106682;28;20412;-93
2023/03/14 12:45:23;;;;;;;5.50;0.70;;;8.80;52.10;;;;;;5085226;28;20412;-92
2023/03/14 12:48:14;;;;;;;5.70;0.50;;;9.00;52.60;;;;;;5067786;28;20414;-94
2023/03/14 12:50:53;;;;;;;6.60;0.70;;;9.00;52.60;;;;;;5067509;28;20857;-92
2023/03/14 12:53:50;;;;;;;4.97;0.47;;;9.00;54.20;;;;;;5068874;28;20406;-92
2023/03/14 12:56:18;;;;;;;4.82;0.38;;;9.20;49.90;;;;;;5069383;28;20812;-93
2023/03/14 12:58:47;;;;;;;5.15;0.43;;;9.30;50.30;;;;;;5069047;28;20909;-92